createdAt,value
2023-05-14T00:01:29.969Z,12.20
2023-05-14T00:03:56.991Z,12.70
2023-05-14T00:06:24.189Z,11.20
2023-05-14T00:08:50.975Z,11.40
2023-05-14T00:11:17.982Z,12.10
2023-05-14T00:13:44.815Z,11.90
2023-05-14T00:16:12.073Z,11.40
2023-05-14T00:18:39.141Z,11.50
2023-05-14T00:21:06.119Z,9.80
2023-05-14T00:23:32.996Z,12.30
2023-05-14T00:25:59.805Z,12.00
2023-05-14T00:28:26.683Z,10.80
2023-05-14T00:30:53.749Z,11.70
2023-05-14T00:33:20.735Z,11.10
2023-05-14T00:35:47.931Z,11.10
2023-05-14T00:38:19.469Z,10.90
2023-05-14T00:40:51.434Z,11.60
2023-05-14T00:43:19.849Z,11.20
2023-05-14T00:45:47.435Z,11.50
2023-05-14T00:48:14.245Z,10.80
2023-05-14T00:50:41.139Z,11.80
2023-05-14T00:53:10.599Z,12.70
2023-05-14T00:55:38.464Z,12.20
2023-05-14T00:58:07.511Z,12.70
2023-05-14T01:00:34.625Z,10.60
2023-05-14T01:03:03.258Z,9.90
2023-05-14T01:05:38.769Z,10.40
2023-05-14T01:08:34.020Z,10.80
2023-05-14T01:11:05.298Z,12.00
2023-05-14T01:13:40.772Z,11.60
2023-05-14T01:16:09.158Z,13.70
2023-05-14T01:18:36.346Z,13.30
2023-05-14T01:21:03.238Z,13.30
2023-05-14T01:23:30.122Z,10.90
2023-05-14T01:25:57.231Z,11.60
2023-05-14T01:28:28.945Z,12.70
2023-05-14T01:31:04.282Z,12.20
2023-05-14T01:33:31.066Z,12.20
2023-05-14T01:35:58.829Z,12.00
2023-05-14T01:38:25.843Z,13.60
2023-05-14T01:40:52.813Z,11.80
2023-05-14T01:43:19.722Z,12.20
2023-05-14T01:45:47.215Z,12.40
2023-05-14T01:48:15.051Z,12.40
2023-05-14T01:50:41.903Z,11.80
2023-05-14T01:53:08.744Z,10.60
2023-05-14T01:55:35.545Z,9.50
2023-05-14T01:58:02.454Z,9.20
2023-05-14T02:00:29.332Z,7.70
2023-05-14T02:02:57.962Z,8.60
2023-05-14T02:05:24.878Z,8.70
2023-05-14T02:07:52.819Z,8.80
2023-05-14T02:10:19.640Z,8.50
2023-05-14T02:12:49.516Z,9.40
2023-05-14T02:15:16.904Z,9.80
2023-05-14T02:17:43.770Z,11.30
2023-05-14T02:20:11.807Z,12.40
2023-05-14T02:22:38.794Z,11.50
2023-05-14T02:25:06.424Z,10.70
2023-05-14T02:27:33.861Z,12.00
2023-05-14T02:30:01.014Z,10.60
2023-05-14T02:32:28.535Z,10.60
2023-05-14T02:34:55.793Z,11.30
2023-05-14T02:37:22.608Z,10.50
2023-05-14T02:39:49.862Z,10.20
2023-05-14T02:42:16.762Z,11.90
2023-05-14T02:44:43.672Z,11.20
2023-05-14T02:47:11.210Z,10.40
2023-05-14T02:49:38.251Z,11.10
2023-05-14T02:52:05.683Z,11.50
2023-05-14T02:54:32.556Z,11.10
2023-05-14T02:56:59.367Z,11.50
2023-05-14T02:59:27.182Z,9.30
2023-05-14T03:01:54.834Z,9.40
2023-05-14T03:04:22.026Z,11.20
2023-05-14T03:06:48.814Z,10.10
2023-05-14T03:09:15.622Z,10.20
2023-05-14T03:11:42.522Z,10.10
2023-05-14T03:14:09.420Z,10.50
2023-05-14T03:16:36.379Z,10.30
2023-05-14T03:19:04.123Z,10.70
2023-05-14T03:21:32.084Z,10.10
2023-05-14T03:23:58.955Z,10.90
2023-05-14T03:26:25.769Z,11.30
2023-05-14T03:28:53.091Z,10.60
2023-05-14T03:31:19.943Z,10.80
2023-05-14T03:33:47.182Z,11.10
2023-05-14T03:36:13.978Z,10.90
2023-05-14T03:38:41.215Z,10.70
2023-05-14T03:41:08.903Z,10.90
2023-05-14T03:43:36.540Z,10.80
2023-05-14T03:46:03.347Z,10.50
2023-05-14T03:48:30.196Z,10.90
2023-05-14T03:50:57.225Z,11.40
2023-05-14T03:53:24.143Z,11.80
2023-05-14T03:55:51.138Z,9.90
2023-05-14T03:58:17.965Z,10.70
2023-05-14T04:00:44.737Z,10.50
2023-05-14T04:03:12.080Z,11.40
2023-05-14T04:05:39.043Z,11.60
2023-05-14T04:08:06.658Z,11.50
2023-05-14T04:10:33.506Z,11.90
2023-05-14T04:13:00.718Z,11.20
2023-05-14T04:15:31.818Z,11.80
2023-05-14T04:17:58.847Z,11.50
2023-05-14T04:20:25.896Z,10.60
2023-05-14T04:22:54.131Z,10.30
2023-05-14T04:25:21.019Z,10.60
2023-05-14T04:27:47.834Z,9.20
2023-05-14T04:30:14.931Z,9.30
2023-05-14T04:32:41.891Z,9.70
2023-05-14T04:35:10.399Z,9.60
2023-05-14T04:37:37.278Z,10.70
2023-05-14T04:40:05.926Z,10.50
2023-05-14T04:42:32.738Z,10.40
2023-05-14T04:44:59.526Z,11.10
2023-05-14T04:47:26.771Z,10.60
2023-05-14T04:49:53.936Z,11.00
2023-05-14T04:52:21.025Z,11.40
2023-05-14T04:54:47.914Z,10.90
2023-05-14T04:57:14.834Z,9.40
2023-05-14T04:59:41.628Z,9.60
2023-05-14T05:02:08.536Z,8.90
2023-05-14T05:04:35.429Z,8.30
2023-05-14T05:07:02.346Z,7.10
2023-05-14T05:09:30.348Z,7.00
2023-05-14T05:11:57.168Z,7.30
2023-05-14T05:14:23.962Z,7.60
2023-05-14T05:16:51.502Z,7.80
2023-05-14T05:19:19.710Z,9.10
2023-05-14T05:21:49.184Z,9.10
2023-05-14T05:24:16.013Z,8.70
2023-05-14T05:26:42.888Z,6.90
2023-05-14T05:29:09.677Z,6.90
2023-05-14T05:31:36.967Z,6.20
2023-05-14T05:34:03.896Z,5.60
2023-05-14T05:36:31.833Z,5.00
2023-05-14T05:38:58.616Z,6.40
2023-05-14T05:41:26.768Z,5.80
2023-05-14T05:43:53.539Z,5.60
2023-05-14T05:46:20.483Z,5.10
2023-05-14T05:48:47.367Z,4.70
2023-05-14T05:51:14.176Z,4.20
2023-05-14T05:53:40.972Z,4.10
2023-05-14T05:56:07.836Z,4.10
2023-05-14T05:58:35.188Z,4.90
2023-05-14T06:01:02.621Z,4.80
2023-05-14T06:03:29.499Z,5.70
2023-05-14T06:05:56.359Z,4.90
2023-05-14T06:08:23.269Z,4.30
2023-05-14T06:10:50.180Z,4.90
2023-05-14T06:13:17.229Z,4.70
2023-05-14T06:15:44.182Z,4.20
2023-05-14T06:18:10.974Z,4.30
2023-05-14T06:20:37.809Z,4.40
2023-05-14T06:23:04.694Z,4.10
2023-05-14T06:25:31.591Z,4.10
2023-05-14T06:27:58.455Z,3.70
2023-05-14T06:30:25.552Z,3.80
2023-05-14T06:32:52.796Z,3.70
2023-05-14T06:35:19.994Z,4.40
2023-05-14T06:37:46.887Z,4.00
2023-05-14T06:40:15.847Z,4.10
2023-05-14T06:42:42.703Z,4.60
2023-05-14T06:45:10.263Z,3.50
2023-05-14T06:47:37.211Z,3.70
2023-05-14T06:50:04.655Z,3.50
2023-05-14T06:52:31.469Z,3.90
2023-05-14T06:54:58.287Z,3.60
2023-05-14T06:57:25.092Z,3.40
2023-05-14T06:59:52.300Z,3.40
2023-05-14T07:02:19.065Z,3.40
2023-05-14T07:04:46.663Z,3.80
2023-05-14T07:07:15.633Z,3.40
2023-05-14T07:09:42.901Z,3.20
2023-05-14T07:12:09.774Z,3.60
2023-05-14T07:14:36.564Z,2.90
2023-05-14T07:17:03.610Z,2.60
2023-05-14T07:19:30.788Z,3.20
2023-05-14T07:21:58.248Z,3.20
2023-05-14T07:24:25.115Z,2.90
2023-05-14T07:26:52.260Z,2.70
2023-05-14T07:29:19.395Z,2.60
2023-05-14T07:31:46.619Z,2.70
2023-05-14T07:34:13.665Z,2.70
2023-05-14T07:36:41.225Z,2.80
2023-05-14T07:39:08.710Z,2.50
2023-05-14T07:41:35.530Z,2.80
2023-05-14T07:44:02.637Z,2.50
2023-05-14T07:46:29.435Z,2.60
2023-05-14T07:48:56.266Z,3.10
2023-05-14T07:51:23.134Z,2.40
2023-05-14T07:53:49.935Z,3.40
2023-05-14T07:56:16.731Z,2.70
2023-05-14T07:58:43.942Z,2.50
2023-05-14T08:01:10.724Z,2.60
2023-05-14T08:03:37.750Z,3.20
2023-05-14T08:06:04.734Z,2.80
2023-05-14T08:08:31.796Z,3.00
2023-05-14T08:10:58.667Z,2.50
2023-05-14T08:13:25.563Z,2.80
2023-05-14T08:15:52.764Z,2.60
2023-05-14T08:18:19.540Z,2.90
2023-05-14T08:20:47.167Z,2.40
2023-05-14T08:23:14.071Z,2.60
2023-05-14T08:25:40.892Z,2.00
2023-05-14T08:28:07.858Z,2.40
2023-05-14T08:30:34.814Z,2.60
2023-05-14T08:33:01.741Z,2.80
2023-05-14T08:35:28.689Z,2.90
2023-05-14T08:37:57.017Z,2.50
2023-05-14T08:40:24.080Z,2.50
2023-05-14T08:42:51.614Z,2.30
2023-05-14T08:45:19.979Z,2.60
2023-05-14T08:47:50.582Z,2.70
2023-05-14T08:50:18.394Z,2.10
2023-05-14T08:52:46.215Z,2.70
2023-05-14T08:55:13.390Z,2.70
2023-05-14T08:57:40.332Z,2.40
2023-05-14T09:00:16.615Z,2.10
2023-05-14T09:02:43.542Z,2.60
2023-05-14T09:05:10.721Z,2.40
2023-05-14T09:07:37.751Z,2.70
2023-05-14T09:10:05.419Z,2.20
2023-05-14T09:12:32.291Z,2.20
2023-05-14T09:14:59.114Z,2.80
2023-05-14T09:17:27.625Z,2.50
2023-05-14T09:19:54.648Z,2.60
2023-05-14T09:22:21.669Z,2.50
2023-05-14T09:25:05.236Z,2.10
2023-05-14T09:27:33.021Z,2.30
2023-05-14T09:30:13.623Z,2.40
2023-05-14T09:32:44.234Z,2.00
2023-05-14T09:35:20.673Z,2.50
2023-05-14T09:37:49.308Z,1.90
2023-05-14T09:40:17.503Z,2.10
2023-05-14T09:42:44.351Z,2.90
2023-05-14T09:45:11.336Z,2.70
2023-05-14T09:47:39.042Z,2.10
2023-05-14T09:50:07.037Z,2.40
2023-05-14T09:52:33.969Z,2.10
2023-05-14T09:55:01.121Z,2.50
2023-05-14T09:57:28.384Z,2.40
2023-05-14T09:59:55.280Z,1.90
2023-05-14T10:02:37.719Z,2.70
2023-05-14T10:05:06.485Z,2.20
2023-05-14T10:07:41.782Z,2.50
2023-05-14T10:10:11.814Z,2.40
2023-05-14T10:12:40.088Z,2.20
2023-05-14T10:15:16.452Z,2.30
2023-05-14T10:17:45.984Z,2.20
2023-05-14T10:20:13.816Z,2.80
2023-05-14T10:22:40.758Z,2.30
2023-05-14T10:25:08.589Z,2.20
2023-05-14T10:27:35.575Z,2.00
2023-05-14T10:30:02.776Z,2.20
2023-05-14T10:32:33.127Z,2.60
2023-05-14T10:34:59.964Z,2.30
2023-05-14T10:38:59.224Z,2.40
2023-05-14T10:41:26.131Z,1.90
2023-05-14T10:43:53.024Z,2.00
2023-05-14T10:46:19.893Z,1.90
2023-05-14T10:48:46.857Z,2.00
2023-05-14T10:51:14.097Z,2.30
2023-05-14T10:53:42.974Z,2.40
2023-05-14T10:56:11.354Z,2.80
2023-05-14T10:58:47.789Z,2.30
2023-05-14T11:01:14.671Z,2.10
2023-05-14T11:03:45.967Z,2.40
2023-05-14T11:06:15.090Z,2.00
2023-05-14T11:08:41.990Z,2.20
2023-05-14T11:11:08.980Z,3.00
2023-05-14T11:13:36.147Z,2.70
2023-05-14T11:16:15.057Z,2.60
2023-05-14T11:18:49.424Z,2.50
2023-05-14T11:21:17.538Z,2.20
2023-05-14T11:23:46.777Z,2.00
2023-05-14T11:26:13.659Z,2.40
2023-05-14T11:28:40.685Z,2.80
2023-05-14T11:31:07.599Z,2.30
2023-05-14T11:33:34.472Z,2.50
2023-05-14T11:36:01.376Z,2.60
2023-05-14T11:38:28.179Z,2.80
2023-05-14T11:40:55.808Z,2.20
2023-05-14T11:43:23.892Z,3.10
2023-05-14T11:45:52.528Z,3.20
2023-05-14T11:48:23.281Z,2.10
2023-05-14T11:50:51.609Z,1.80
2023-05-14T11:53:20.172Z,2.30
2023-05-14T11:55:47.505Z,1.90
2023-05-14T11:58:14.365Z,2.30
2023-05-14T12:00:41.590Z,2.20
2023-05-14T12:03:10.216Z,2.40
2023-05-14T12:05:40.514Z,2.10
2023-05-14T12:08:21.554Z,2.10
2023-05-14T12:10:48.623Z,2.70
2023-05-14T12:13:17.620Z,2.40
2023-05-14T12:15:47.148Z,2.30
2023-05-14T12:18:24.045Z,2.40
2023-05-14T12:20:52.268Z,2.30
2023-05-14T12:23:29.805Z,2.10
2023-05-14T12:26:02.489Z,2.80
2023-05-14T12:28:29.406Z,2.20
2023-05-14T12:30:57.522Z,2.30
2023-05-14T12:33:26.662Z,2.00
2023-05-14T12:35:54.276Z,2.90
2023-05-14T12:38:21.077Z,2.60
2023-05-14T12:40:47.954Z,2.20
2023-05-14T12:43:15.081Z,2.60
2023-05-14T12:45:41.869Z,2.20
2023-05-14T12:48:08.739Z,1.90
2023-05-14T12:50:35.691Z,2.10
2023-05-14T12:53:02.603Z,2.40
2023-05-14T12:55:29.498Z,2.30
2023-05-14T12:57:56.372Z,1.90
2023-05-14T13:00:23.401Z,2.60
2023-05-14T13:02:50.493Z,2.10
2023-05-14T13:05:17.325Z,2.00
2023-05-14T13:07:44.110Z,2.30
2023-05-14T13:10:11.984Z,2.40
2023-05-14T13:12:39.102Z,2.30
2023-05-14T13:15:06.837Z,2.70
2023-05-14T13:17:33.742Z,2.10
2023-05-14T13:20:00.933Z,2.10
2023-05-14T13:22:27.891Z,1.80
2023-05-14T13:24:54.672Z,2.50
2023-05-14T13:27:21.667Z,2.20
2023-05-14T13:29:48.547Z,2.40
2023-05-14T13:32:15.476Z,2.50
2023-05-14T13:34:44.026Z,2.70
2023-05-14T13:37:11.309Z,3.10
2023-05-14T13:39:39.365Z,2.70
2023-05-14T13:42:08.193Z,2.40
2023-05-14T13:44:36.262Z,2.90
2023-05-14T13:47:03.225Z,6.90
2023-05-14T13:49:30.120Z,3.00
2023-05-14T13:51:57.002Z,2.70
2023-05-14T13:54:23.816Z,3.10
2023-05-14T13:56:51.162Z,2.30
2023-05-14T13:59:18.470Z,2.00
2023-05-14T14:01:45.473Z,2.50
2023-05-14T14:04:12.534Z,2.60
2023-05-14T14:06:39.271Z,3.60
2023-05-14T14:09:06.051Z,3.40
2023-05-14T14:11:32.862Z,3.00
2023-05-14T14:13:59.641Z,2.80
2023-05-14T14:16:26.574Z,3.40
2023-05-14T14:18:53.561Z,3.10
2023-05-14T14:21:21.195Z,2.40
2023-05-14T14:23:48.465Z,2.20
2023-05-14T14:26:15.997Z,2.30
2023-05-14T14:28:43.096Z,2.60
2023-05-14T14:31:11.134Z,3.30
2023-05-14T14:33:38.043Z,2.90
2023-05-14T14:36:06.020Z,2.60
2023-05-14T14:38:32.826Z,2.80
2023-05-14T14:40:59.634Z,3.30
2023-05-14T14:43:26.451Z,3.70
2023-05-14T14:45:53.264Z,3.60
2023-05-14T14:48:28.140Z,4.90
2023-05-14T14:50:55.162Z,4.00
2023-05-14T14:53:22.260Z,3.10
2023-05-14T14:55:49.873Z,3.80
2023-05-14T14:58:18.438Z,3.40
2023-05-14T15:00:45.872Z,4.00
2023-05-14T15:03:12.991Z,4.70
2023-05-14T15:05:40.055Z,5.20
2023-05-14T15:08:06.908Z,5.80
2023-05-14T15:10:38.014Z,4.70
2023-05-14T15:13:06.084Z,4.00
2023-05-14T15:15:36.113Z,5.20
2023-05-14T15:18:03.871Z,9.10
2023-05-14T15:20:30.827Z,4.20
2023-05-14T15:22:57.721Z,3.60
2023-05-14T15:25:25.144Z,3.50
2023-05-14T15:27:52.335Z,3.40
2023-05-14T15:30:19.240Z,3.60
2023-05-14T15:32:46.856Z,3.50
2023-05-14T15:35:14.104Z,3.80
2023-05-14T15:37:42.727Z,4.70
2023-05-14T15:40:10.689Z,3.60
2023-05-14T15:42:38.665Z,3.10
2023-05-14T15:45:06.185Z,2.90
2023-05-14T15:47:33.593Z,3.10
2023-05-14T15:50:00.809Z,3.00
2023-05-14T15:52:27.616Z,4.20
2023-05-14T15:54:56.293Z,4.00
2023-05-14T15:57:23.777Z,3.70
2023-05-14T15:59:51.538Z,3.70
2023-05-14T16:02:18.692Z,4.00
2023-05-14T16:04:45.545Z,3.10
2023-05-14T16:07:13.307Z,3.60
2023-05-14T16:09:40.234Z,3.10
2023-05-14T16:12:07.846Z,3.20
2023-05-14T16:14:35.239Z,3.50
2023-05-14T16:17:02.253Z,3.00
2023-05-14T16:19:29.162Z,3.50
2023-05-14T16:21:56.081Z,4.00
2023-05-14T16:24:22.862Z,4.70
2023-05-14T16:26:49.653Z,8.10
2023-05-14T16:29:16.486Z,12.00
2023-05-14T16:31:43.588Z,9.80
2023-05-14T16:34:10.479Z,9.60
2023-05-14T16:36:37.644Z,8.30
2023-05-14T16:39:07.757Z,8.80
2023-05-14T16:41:38.380Z,11.30
2023-05-14T16:44:05.229Z,12.20
2023-05-14T16:46:32.437Z,12.60
2023-05-14T16:48:59.549Z,12.50
2023-05-14T16:51:26.355Z,14.00
2023-05-14T16:53:55.405Z,16.60
2023-05-14T16:56:23.650Z,20.90
2023-05-14T16:58:50.540Z,21.40
2023-05-14T17:01:17.428Z,17.90
2023-05-14T17:03:45.697Z,16.90
2023-05-14T17:06:12.492Z,14.60
2023-05-14T17:08:39.412Z,15.00
2023-05-14T17:11:06.274Z,15.30
2023-05-14T17:13:33.591Z,10.60
2023-05-14T17:16:01.109Z,12.40
2023-05-14T17:18:28.587Z,13.10
2023-05-14T17:20:55.912Z,12.50
2023-05-14T17:23:22.763Z,13.40
2023-05-14T17:25:49.864Z,10.70
2023-05-14T17:28:16.726Z,7.20
2023-05-14T17:30:43.956Z,6.60
2023-05-14T17:33:11.695Z,6.60
2023-05-14T17:35:38.780Z,6.40
2023-05-14T17:38:05.815Z,6.70
2023-05-14T17:40:33.796Z,7.60
2023-05-14T17:43:00.892Z,9.30
2023-05-14T17:45:28.550Z,9.10
2023-05-14T17:47:57.669Z,8.00
2023-05-14T17:50:24.602Z,8.90
2023-05-14T17:52:51.617Z,11.70
2023-05-14T17:55:19.358Z,10.30
2023-05-14T17:57:46.535Z,9.40
2023-05-14T18:00:14.000Z,8.00
2023-05-14T18:02:41.844Z,7.20
2023-05-14T18:05:09.170Z,12.60
2023-05-14T18:07:36.835Z,10.50
2023-05-14T18:10:04.301Z,8.10
2023-05-14T18:12:31.129Z,8.00
2023-05-14T18:14:58.032Z,6.80
2023-05-14T18:17:24.833Z,6.80
2023-05-14T18:19:51.837Z,7.90
2023-05-14T18:22:20.396Z,11.50
2023-05-14T18:24:47.483Z,9.60
2023-05-14T18:27:14.373Z,9.00
2023-05-14T18:29:42.835Z,8.90
2023-05-14T18:32:09.815Z,12.20
2023-05-14T18:34:36.642Z,12.90
2023-05-14T18:37:03.621Z,14.70
2023-05-14T18:39:30.472Z,18.10
2023-05-14T18:41:57.533Z,18.50
2023-05-14T18:44:24.435Z,16.80
2023-05-14T18:46:51.322Z,13.70
2023-05-14T18:49:18.219Z,11.40
2023-05-14T18:51:45.020Z,10.60
2023-05-14T18:54:11.910Z,10.50
2023-05-14T18:56:41.397Z,9.00
2023-05-14T18:59:09.421Z,11.00
2023-05-14T19:01:36.533Z,11.70
2023-05-14T19:04:05.397Z,11.00
2023-05-14T19:06:32.929Z,11.80
2023-05-14T19:09:00.127Z,12.10
2023-05-14T19:11:27.002Z,14.00
2023-05-14T19:13:53.788Z,13.90
2023-05-14T19:16:21.406Z,11.80
2023-05-14T19:18:48.424Z,10.30
2023-05-14T19:21:15.422Z,10.90
2023-05-14T19:23:42.210Z,12.10
2023-05-14T19:26:09.112Z,15.60
2023-05-14T19:28:37.985Z,15.70
2023-05-14T19:31:05.641Z,14.70
2023-05-14T19:33:32.585Z,17.50
2023-05-14T19:35:59.417Z,22.40
2023-05-14T19:38:26.403Z,19.00
2023-05-14T19:40:56.929Z,15.50
2023-05-14T19:43:25.592Z,17.80
2023-05-14T19:45:52.474Z,17.80
2023-05-14T19:48:19.763Z,18.10
2023-05-14T19:50:47.358Z,18.70
2023-05-14T19:53:14.567Z,18.80
2023-05-14T19:55:41.993Z,17.60
2023-05-14T19:58:09.073Z,18.70
2023-05-14T20:00:37.207Z,18.40
2023-05-14T20:03:06.104Z,19.30
2023-05-14T20:05:34.511Z,18.40
2023-05-14T20:08:01.741Z,16.10
2023-05-14T20:10:28.717Z,17.50
2023-05-14T20:12:55.641Z,14.20
2023-05-14T20:15:22.479Z,14.50
2023-05-14T20:17:49.391Z,16.10
2023-05-14T20:20:16.801Z,17.70
2023-05-14T20:22:44.164Z,16.30
2023-05-14T20:25:11.052Z,15.20
2023-05-14T20:27:37.888Z,16.90
2023-05-14T20:30:08.267Z,15.70
2023-05-14T20:32:35.304Z,19.20
2023-05-14T20:35:02.445Z,24.10
2023-05-14T20:37:33.359Z,24.20
2023-05-14T20:40:00.663Z,20.60
2023-05-14T20:42:27.789Z,15.90
2023-05-14T20:44:54.877Z,16.40
2023-05-14T20:47:24.405Z,14.60
2023-05-14T20:49:51.346Z,14.70
2023-05-14T20:52:18.975Z,15.00
2023-05-14T20:54:46.184Z,15.40
2023-05-14T20:57:16.069Z,13.10
2023-05-14T20:59:42.891Z,14.50
2023-05-14T21:02:09.910Z,15.40
2023-05-14T21:04:37.024Z,13.40
2023-05-14T21:07:04.271Z,12.30
2023-05-14T21:09:31.184Z,12.80
2023-05-14T21:11:57.973Z,12.40
2023-05-14T21:14:25.110Z,12.40
2023-05-14T21:16:52.001Z,13.50
2023-05-14T21:19:18.886Z,13.70
2023-05-14T21:21:47.496Z,14.20
2023-05-14T21:24:16.855Z,14.10
2023-05-14T21:26:43.722Z,12.30
2023-05-14T21:29:11.215Z,13.10
2023-05-14T21:31:38.096Z,14.90
2023-05-14T21:34:05.059Z,14.50
2023-05-14T21:36:31.956Z,14.30
2023-05-14T21:38:58.744Z,14.80
2023-05-14T21:41:25.819Z,13.40
2023-05-14T21:43:52.742Z,13.60
2023-05-14T21:46:19.532Z,14.90
2023-05-14T21:48:46.468Z,15.10
2023-05-14T21:51:13.420Z,15.70
2023-05-14T21:53:40.223Z,13.80
2023-05-14T21:56:08.300Z,13.20
2023-05-14T21:58:35.976Z,13.50
2023-05-14T22:01:02.849Z,14.40
2023-05-14T22:03:29.792Z,12.20
2023-05-14T22:05:57.422Z,12.40
2023-05-14T22:08:24.304Z,11.30
2023-05-14T22:10:51.300Z,11.10
2023-05-14T22:13:18.183Z,11.70
2023-05-14T22:15:45.075Z,11.10
2023-05-14T22:18:12.998Z,11.30
2023-05-14T22:20:40.243Z,11.20
2023-05-14T22:23:07.252Z,12.10
2023-05-14T22:25:34.110Z,11.60
2023-05-14T22:28:00.941Z,13.20
2023-05-14T22:30:27.822Z,12.60
2023-05-14T22:32:54.686Z,13.00
2023-05-14T22:35:21.629Z,13.00
2023-05-14T22:37:48.523Z,12.50
2023-05-14T22:40:15.351Z,11.90
2023-05-14T22:42:42.155Z,12.00
2023-05-14T22:45:09.880Z,11.20
2023-05-14T22:47:37.966Z,10.40
2023-05-14T22:50:11.293Z,10.30
2023-05-14T22:52:39.434Z,11.10
2023-05-14T22:56:52.837Z,11.30
2023-05-14T22:59:21.015Z,10.80
2023-05-14T23:01:49.920Z,10.70
2023-05-14T23:04:16.828Z,10.40
2023-05-14T23:06:43.625Z,10.80
2023-05-14T23:09:10.417Z,11.20
2023-05-14T23:11:37.314Z,11.40
2023-05-14T23:14:04.153Z,11.30
2023-05-14T23:16:32.036Z,11.30
2023-05-14T23:18:58.951Z,10.90
2023-05-14T23:21:26.053Z,12.90
2023-05-14T23:23:52.992Z,13.90
2023-05-14T23:26:19.928Z,14.40
2023-05-14T23:28:47.583Z,13.80
2023-05-14T23:31:14.395Z,13.30
2023-05-14T23:33:41.250Z,13.30
2023-05-14T23:36:08.692Z,13.60
2023-05-14T23:38:35.568Z,12.60
2023-05-14T23:41:02.381Z,13.60
2023-05-14T23:43:29.260Z,13.10
2023-05-14T23:45:56.141Z,12.40
2023-05-14T23:48:23.056Z,11.60
2023-05-14T23:50:49.962Z,12.00
2023-05-14T23:53:17.767Z,12.50
2023-05-14T23:55:44.704Z,11.90
2023-05-14T23:58:11.796Z,12.10
